sensor_id;sensor_type;location;lat;lon;timestamp;P1;durP1;ratioP1;P2;durP2;ratioP2
7989;SDS011;4040;42.848;23.034;2023-08-17T00:01:32;18.08;;;16.17;;
7989;SDS011;4040;42.848;23.034;2023-08-17T00:07:20;17.17;;;15.43;;
7989;SDS011;4040;42.848;23.034;2023-08-17T00:13:11;15.20;;;11.32;;
7989;SDS011;4040;42.848;23.034;2023-08-17T00:19:01;16.33;;;14.55;;
7989;SDS011;4040;42.848;23.034;2023-08-17T00:24:50;21.45;;;15.40;;
7989;SDS011;4040;42.848;23.034;2023-08-17T00:30:40;16.55;;;14.85;;
7989;SDS011;4040;42.848;23.034;2023-08-17T00:36:28;18.88;;;13.55;;
7989;SDS011;4040;42.848;23.034;2023-08-17T00:42:17;17.45;;;14.07;;
7989;SDS011;4040;42.848;23.034;2023-08-17T00:48:08;20.30;;;16.10;;
7989;SDS011;4040;42.848;23.034;2023-08-17T00:53:57;18.45;;;13.48;;
7989;SDS011;4040;42.848;23.034;2023-08-17T00:59:47;16.58;;;14.50;;
7989;SDS011;4040;42.848;23.034;2023-08-17T01:09:49;20.17;;;14.27;;
7989;SDS011;4040;42.848;23.034;2023-08-17T01:15:40;18.55;;;12.00;;
7989;SDS011;4040;42.848;23.034;2023-08-17T01:21:35;15.15;;;11.65;;
7989;SDS011;4040;42.848;23.034;2023-08-17T01:27:40;17.30;;;12.38;;
7989;SDS011;4040;42.848;23.034;2023-08-17T01:33:31;18.90;;;14.63;;
7989;SDS011;4040;42.848;23.034;2023-08-17T01:39:23;19.17;;;14.65;;
7989;SDS011;4040;42.848;23.034;2023-08-17T01:45:20;17.08;;;14.18;;
7989;SDS011;4040;42.848;23.034;2023-08-17T01:51:09;16.38;;;13.82;;
7989;SDS011;4040;42.848;23.034;2023-08-17T01:56:58;19.00;;;15.63;;
7989;SDS011;4040;42.848;23.034;2023-08-17T02:02:49;18.15;;;15.10;;
7989;SDS011;4040;42.848;23.034;2023-08-17T02:12:59;16.60;;;13.80;;
7989;SDS011;4040;42.848;23.034;2023-08-17T02:18:49;15.27;;;13.60;;
7989;SDS011;4040;42.848;23.034;2023-08-17T02:24:38;15.88;;;12.80;;
7989;SDS011;4040;42.848;23.034;2023-08-17T02:30:27;18.52;;;16.05;;
7989;SDS011;4040;42.848;23.034;2023-08-17T02:36:17;17.10;;;15.30;;
7989;SDS011;4040;42.848;23.034;2023-08-17T02:42:06;16.77;;;13.85;;
7989;SDS011;4040;42.848;23.034;2023-08-17T02:47:55;16.13;;;14.35;;
7989;SDS011;4040;42.848;23.034;2023-08-17T02:53:44;15.43;;;13.82;;
7989;SDS011;4040;42.848;23.034;2023-08-17T02:59:33;15.98;;;14.30;;
7989;SDS011;4040;42.848;23.034;2023-08-17T03:05:22;13.27;;;9.60;;
7989;SDS011;4040;42.848;23.034;2023-08-17T03:15:34;11.10;;;9.73;;
7989;SDS011;4040;42.848;23.034;2023-08-17T03:21:26;18.13;;;12.98;;
7989;SDS011;4040;42.848;23.034;2023-08-17T03:27:15;16.13;;;14.57;;
7989;SDS011;4040;42.848;23.034;2023-08-17T03:33:05;16.52;;;14.18;;
7989;SDS011;4040;42.848;23.034;2023-08-17T03:38:54;14.70;;;13.13;;
7989;SDS011;4040;42.848;23.034;2023-08-17T03:44:43;16.98;;;14.77;;
7989;SDS011;4040;42.848;23.034;2023-08-17T03:50:33;15.75;;;13.75;;
7989;SDS011;4040;42.848;23.034;2023-08-17T03:56:21;17.55;;;15.57;;
7989;SDS011;4040;42.848;23.034;2023-08-17T04:02:10;16.75;;;14.95;;
7989;SDS011;4040;42.848;23.034;2023-08-17T04:08:00;16.85;;;15.15;;
7989;SDS011;4040;42.848;23.034;2023-08-17T04:18:11;19.45;;;14.98;;
7989;SDS011;4040;42.848;23.034;2023-08-17T04:24:02;17.25;;;15.45;;
7989;SDS011;4040;42.848;23.034;2023-08-17T04:29:51;18.85;;;14.05;;
7989;SDS011;4040;42.848;23.034;2023-08-17T04:35:39;16.83;;;13.85;;
7989;SDS011;4040;42.848;23.034;2023-08-17T04:41:29;17.70;;;14.30;;
7989;SDS011;4040;42.848;23.034;2023-08-17T04:47:18;14.88;;;13.05;;
7989;SDS011;4040;42.848;23.034;2023-08-17T04:53:07;17.33;;;11.55;;
7989;SDS011;4040;42.848;23.034;2023-08-17T04:58:57;12.80;;;10.52;;
7989;SDS011;4040;42.848;23.034;2023-08-17T05:04:46;10.68;;;9.57;;
7989;SDS011;4040;42.848;23.034;2023-08-17T05:10:45;11.40;;;9.25;;
7989;SDS011;4040;42.848;23.034;2023-08-17T05:20:57;10.82;;;9.73;;
7989;SDS011;4040;42.848;23.034;2023-08-17T05:26:45;14.27;;;8.73;;
7989;SDS011;4040;42.848;23.034;2023-08-17T05:32:34;15.57;;;9.15;;
7989;SDS011;4040;42.848;23.034;2023-08-17T05:38:24;12.57;;;8.85;;
7989;SDS011;4040;42.848;23.034;2023-08-17T05:44:13;10.25;;;8.02;;
7989;SDS011;4040;42.848;23.034;2023-08-17T05:50:02;10.55;;;8.32;;
7989;SDS011;4040;42.848;23.034;2023-08-17T05:55:52;13.40;;;8.82;;
7989;SDS011;4040;42.848;23.034;2023-08-17T06:01:41;8.25;;;7.40;;
7989;SDS011;4040;42.848;23.034;2023-08-17T06:07:29;14.20;;;8.57;;
7989;SDS011;4040;42.848;23.034;2023-08-17T06:13:19;11.18;;;7.63;;
7989;SDS011;4040;42.848;23.034;2023-08-17T06:23:30;8.90;;;7.30;;
7989;SDS011;4040;42.848;23.034;2023-08-17T06:29:20;10.05;;;6.75;;
7989;SDS011;4040;42.848;23.034;2023-08-17T06:35:09;9.27;;;6.80;;
7989;SDS011;4040;42.848;23.034;2023-08-17T06:40:58;12.60;;;7.63;;
7989;SDS011;4040;42.848;23.034;2023-08-17T06:46:47;12.55;;;7.88;;
7989;SDS011;4040;42.848;23.034;2023-08-17T06:52:36;8.13;;;7.00;;
7989;SDS011;4040;42.848;23.034;2023-08-17T06:58:25;11.48;;;6.05;;
7989;SDS011;4040;42.848;23.034;2023-08-17T07:04:15;15.00;;;7.07;;
7989;SDS011;4040;42.848;23.034;2023-08-17T07:10:04;10.25;;;6.70;;
7989;SDS011;4040;42.848;23.034;2023-08-17T07:15:54;12.35;;;6.68;;
7989;SDS011;4040;42.848;23.034;2023-08-17T07:26:06;5.50;;;5.00;;
7989;SDS011;4040;42.848;23.034;2023-08-17T07:31:55;6.40;;;5.75;;
7989;SDS011;4040;42.848;23.034;2023-08-17T07:37:48;11.65;;;6.13;;
7989;SDS011;4040;42.848;23.034;2023-08-17T07:43:38;6.28;;;5.68;;
7989;SDS011;4040;42.848;23.034;2023-08-17T07:49:27;7.47;;;5.03;;
7989;SDS011;4040;42.848;23.034;2023-08-17T07:55:16;8.30;;;5.60;;
7989;SDS011;4040;42.848;23.034;2023-08-17T08:01:07;6.68;;;4.95;;
7989;SDS011;4040;42.848;23.034;2023-08-17T08:06:55;5.57;;;4.88;;
7989;SDS011;4040;42.848;23.034;2023-08-17T08:12:44;7.63;;;4.45;;
7989;SDS011;4040;42.848;23.034;2023-08-17T08:18:34;5.72;;;4.40;;
7989;SDS011;4040;42.848;23.034;2023-08-17T08:28:44;5.72;;;4.15;;
7989;SDS011;4040;42.848;23.034;2023-08-17T08:34:34;8.55;;;4.10;;
7989;SDS011;4040;42.848;23.034;2023-08-17T08:40:26;5.95;;;3.83;;
7989;SDS011;4040;42.848;23.034;2023-08-17T08:46:16;5.70;;;3.85;;
7989;SDS011;4040;42.848;23.034;2023-08-17T08:52:07;4.68;;;3.80;;
7989;SDS011;4040;42.848;23.034;2023-08-17T08:58:00;6.35;;;4.07;;
7989;SDS011;4040;42.848;23.034;2023-08-17T09:03:50;7.40;;;4.35;;
7989;SDS011;4040;42.848;23.034;2023-08-17T09:09:43;5.35;;;4.10;;
7989;SDS011;4040;42.848;23.034;2023-08-17T09:15:33;5.53;;;4.38;;
7989;SDS011;4040;42.848;23.034;2023-08-17T09:21:22;4.75;;;3.33;;
7989;SDS011;4040;42.848;23.034;2023-08-17T09:31:34;4.60;;;3.60;;
7989;SDS011;4040;42.848;23.034;2023-08-17T09:37:22;4.53;;;3.97;;
7989;SDS011;4040;42.848;23.034;2023-08-17T09:43:11;4.70;;;3.53;;
7989;SDS011;4040;42.848;23.034;2023-08-17T09:49:03;6.85;;;4.35;;
7989;SDS011;4040;42.848;23.034;2023-08-17T09:54:52;6.40;;;4.63;;
7989;SDS011;4040;42.848;23.034;2023-08-17T10:00:42;6.93;;;4.15;;
7989;SDS011;4040;42.848;23.034;2023-08-17T10:06:34;7.05;;;3.63;;
7989;SDS011;4040;42.848;23.034;2023-08-17T10:12:27;4.80;;;4.40;;
7989;SDS011;4040;42.848;23.034;2023-08-17T10:18:22;5.95;;;4.38;;
7989;SDS011;4040;42.848;23.034;2023-08-17T10:24:18;5.60;;;3.90;;
7989;SDS011;4040;42.848;23.034;2023-08-17T10:34:29;4.13;;;3.72;;
7989;SDS011;4040;42.848;23.034;2023-08-17T10:40:23;4.57;;;3.88;;
7989;SDS011;4040;42.848;23.034;2023-08-17T10:46:15;6.25;;;3.85;;
7989;SDS011;4040;42.848;23.034;2023-08-17T10:52:04;4.32;;;3.90;;
7989;SDS011;4040;42.848;23.034;2023-08-17T10:54:36;5.68;;;4.15;;
7989;SDS011;4040;42.848;23.034;2023-08-17T11:00:31;12.52;;;4.50;;
7989;SDS011;4040;42.848;23.034;2023-08-17T11:06:21;3.75;;;3.45;;
7989;SDS011;4040;42.848;23.034;2023-08-17T11:12:24;4.38;;;3.60;;
7989;SDS011;4040;42.848;23.034;2023-08-17T11:18:15;4.18;;;3.55;;
7989;SDS011;4040;42.848;23.034;2023-08-17T11:24:04;4.70;;;3.50;;
7989;SDS011;4040;42.848;23.034;2023-08-17T11:29:56;3.75;;;3.38;;
7989;SDS011;4040;42.848;23.034;2023-08-17T11:35:46;5.55;;;3.38;;
7989;SDS011;4040;42.848;23.034;2023-08-17T11:41:37;4.47;;;3.35;;
7989;SDS011;4040;42.848;23.034;2023-08-17T11:47:25;5.78;;;3.88;;
7989;SDS011;4040;42.848;23.034;2023-08-17T11:53:16;4.72;;;3.70;;
7989;SDS011;4040;42.848;23.034;2023-08-17T11:59:08;7.15;;;3.95;;
7989;SDS011;4040;42.848;23.034;2023-08-17T12:04:58;7.07;;;4.43;;
7989;SDS011;4040;42.848;23.034;2023-08-17T12:10:48;6.70;;;4.15;;
7989;SDS011;4040;42.848;23.034;2023-08-17T12:16:44;6.07;;;4.00;;
7989;SDS011;4040;42.848;23.034;2023-08-17T12:22:34;4.72;;;3.63;;
7989;SDS011;4040;42.848;23.034;2023-08-17T12:28:24;4.88;;;3.47;;
7989;SDS011;4040;42.848;23.034;2023-08-17T12:34:13;5.65;;;3.78;;
7989;SDS011;4040;42.848;23.034;2023-08-17T12:40:02;6.97;;;3.97;;
7989;SDS011;4040;42.848;23.034;2023-08-17T12:45:53;8.20;;;4.00;;
7989;SDS011;4040;42.848;23.034;2023-08-17T12:51:42;6.30;;;4.18;;
7989;SDS011;4040;42.848;23.034;2023-08-17T12:57:30;4.72;;;3.65;;
7989;SDS011;4040;42.848;23.034;2023-08-17T13:03:20;5.18;;;3.78;;
7989;SDS011;4040;42.848;23.034;2023-08-17T13:09:09;5.00;;;4.35;;
7989;SDS011;4040;42.848;23.034;2023-08-17T13:14:58;5.85;;;4.00;;
7989;SDS011;4040;42.848;23.034;2023-08-17T13:20:48;4.30;;;3.90;;
7989;SDS011;4040;42.848;23.034;2023-08-17T13:26:36;7.72;;;4.38;;
7989;SDS011;4040;42.848;23.034;2023-08-17T13:36:38;8.88;;;4.18;;
7989;SDS011;4040;42.848;23.034;2023-08-17T13:42:27;6.55;;;4.05;;
7989;SDS011;4040;42.848;23.034;2023-08-17T13:48:16;6.45;;;3.95;;
7989;SDS011;4040;42.848;23.034;2023-08-17T13:54:06;4.07;;;3.67;;
7989;SDS011;4040;42.848;23.034;2023-08-17T13:59:54;7.75;;;4.13;;
7989;SDS011;4040;42.848;23.034;2023-08-17T14:05:43;7.65;;;4.63;;
7989;SDS011;4040;42.848;23.034;2023-08-17T14:11:33;4.82;;;3.65;;
7989;SDS011;4040;42.848;23.034;2023-08-17T14:17:22;6.70;;;3.90;;
7989;SDS011;4040;42.848;23.034;2023-08-17T14:23:11;4.80;;;4.10;;
7989;SDS011;4040;42.848;23.034;2023-08-17T14:29:00;6.40;;;3.88;;
7989;SDS011;4040;42.848;23.034;2023-08-17T14:39:11;5.90;;;4.22;;
7989;SDS011;4040;42.848;23.034;2023-08-17T14:45:02;6.13;;;3.90;;
7989;SDS011;4040;42.848;23.034;2023-08-17T14:50:51;7.43;;;4.00;;
7989;SDS011;4040;42.848;23.034;2023-08-17T14:56:40;7.28;;;4.22;;
7989;SDS011;4040;42.848;23.034;2023-08-17T15:02:30;4.75;;;3.97;;
7989;SDS011;4040;42.848;23.034;2023-08-17T15:08:18;4.68;;;3.90;;
7989;SDS011;4040;42.848;23.034;2023-08-17T15:14:08;6.10;;;3.80;;
7989;SDS011;4040;42.848;23.034;2023-08-17T15:19:58;9.00;;;4.50;;
7989;SDS011;4040;42.848;23.034;2023-08-17T15:25:47;9.60;;;5.10;;
7989;SDS011;4040;42.848;23.034;2023-08-17T15:31:36;5.15;;;4.22;;
7989;SDS011;4040;42.848;23.034;2023-08-17T15:41:47;6.40;;;3.88;;
7989;SDS011;4040;42.848;23.034;2023-08-17T15:47:36;5.35;;;4.00;;
7989;SDS011;4040;42.848;23.034;2023-08-17T15:53:35;10.23;;;4.10;;
7989;SDS011;4040;42.848;23.034;2023-08-17T15:59:27;5.63;;;3.97;;
7989;SDS011;4040;42.848;23.034;2023-08-17T16:05:16;7.20;;;4.18;;
7989;SDS011;4040;42.848;23.034;2023-08-17T16:11:04;7.28;;;4.07;;
7989;SDS011;4040;42.848;23.034;2023-08-17T16:16:54;5.22;;;4.57;;
7989;SDS011;4040;42.848;23.034;2023-08-17T16:22:42;6.10;;;3.80;;
7989;SDS011;4040;42.848;23.034;2023-08-17T16:28:31;8.32;;;4.07;;
7989;SDS011;4040;42.848;23.034;2023-08-17T16:34:21;4.28;;;3.78;;
7989;SDS011;4040;42.848;23.034;2023-08-17T16:44:31;5.50;;;3.70;;
7989;SDS011;4040;42.848;23.034;2023-08-17T16:50:22;4.00;;;3.63;;
7989;SDS011;4040;42.848;23.034;2023-08-17T16:56:10;4.78;;;4.05;;
7989;SDS011;4040;42.848;23.034;2023-08-17T17:01:59;4.40;;;4.00;;
7989;SDS011;4040;42.848;23.034;2023-08-17T17:07:50;5.13;;;4.28;;
7989;SDS011;4040;42.848;23.034;2023-08-17T17:13:39;7.35;;;4.93;;
7989;SDS011;4040;42.848;23.034;2023-08-17T17:19:28;5.35;;;4.65;;
7989;SDS011;4040;42.848;23.034;2023-08-17T17:25:17;8.25;;;5.60;;
7989;SDS011;4040;42.848;23.034;2023-08-17T17:31:06;9.65;;;4.97;;
7989;SDS011;4040;42.848;23.034;2023-08-17T17:36:55;5.45;;;4.93;;
7989;SDS011;4040;42.848;23.034;2023-08-17T17:47:06;7.45;;;5.53;;
7989;SDS011;4040;42.848;23.034;2023-08-17T17:52:55;8.13;;;5.13;;
7989;SDS011;4040;42.848;23.034;2023-08-17T17:58:44;6.28;;;4.78;;
7989;SDS011;4040;42.848;23.034;2023-08-17T18:04:34;7.72;;;6.30;;
7989;SDS011;4040;42.848;23.034;2023-08-17T18:10:23;8.32;;;5.30;;
7989;SDS011;4040;42.848;23.034;2023-08-17T18:16:12;10.15;;;5.50;;
7989;SDS011;4040;42.848;23.034;2023-08-17T18:22:03;6.53;;;5.50;;
7989;SDS011;4040;42.848;23.034;2023-08-17T18:27:51;9.75;;;5.20;;
7989;SDS011;4040;42.848;23.034;2023-08-17T18:33:41;8.52;;;4.72;;
7989;SDS011;4040;42.848;23.034;2023-08-17T18:39:30;6.40;;;5.78;;
7989;SDS011;4040;42.848;23.034;2023-08-17T18:49:41;7.78;;;5.50;;
7989;SDS011;4040;42.848;23.034;2023-08-17T18:55:31;5.65;;;5.05;;
7989;SDS011;4040;42.848;23.034;2023-08-17T19:01:20;10.18;;;5.80;;
7989;SDS011;4040;42.848;23.034;2023-08-17T19:07:09;7.10;;;5.47;;
7989;SDS011;4040;42.848;23.034;2023-08-17T19:12:59;8.52;;;5.78;;
7989;SDS011;4040;42.848;23.034;2023-08-17T19:18:48;8.60;;;6.07;;
7989;SDS011;4040;42.848;23.034;2023-08-17T19:24:36;6.60;;;5.68;;
7989;SDS011;4040;42.848;23.034;2023-08-17T19:30:27;10.27;;;6.07;;
7989;SDS011;4040;42.848;23.034;2023-08-17T19:36:15;10.23;;;6.25;;
7989;SDS011;4040;42.848;23.034;2023-08-17T19:42:04;8.07;;;6.38;;
7989;SDS011;4040;42.848;23.034;2023-08-17T19:52:17;8.27;;;6.05;;
7989;SDS011;4040;42.848;23.034;2023-08-17T19:58:05;10.30;;;6.03;;
7989;SDS011;4040;42.848;23.034;2023-08-17T20:03:54;7.03;;;5.43;;
7989;SDS011;4040;42.848;23.034;2023-08-17T20:09:45;5.50;;;5.00;;
7989;SDS011;4040;42.848;23.034;2023-08-17T20:15:33;6.15;;;4.80;;
7989;SDS011;4040;42.848;23.034;2023-08-17T20:21:22;8.13;;;4.90;;
7989;SDS011;4040;42.848;23.034;2023-08-17T20:27:13;6.97;;;4.75;;
7989;SDS011;4040;42.848;23.034;2023-08-17T20:33:01;7.15;;;4.65;;
7989;SDS011;4040;42.848;23.034;2023-08-17T20:38:50;6.10;;;5.13;;
7989;SDS011;4040;42.848;23.034;2023-08-17T20:44:42;6.10;;;4.72;;
7989;SDS011;4040;42.848;23.034;2023-08-17T20:54:53;6.90;;;5.32;;
7989;SDS011;4040;42.848;23.034;2023-08-17T21:00:44;10.10;;;6.30;;
7989;SDS011;4040;42.848;23.034;2023-08-17T21:06:32;5.88;;;5.28;;
7989;SDS011;4040;42.848;23.034;2023-08-17T21:12:21;6.57;;;5.60;;
7989;SDS011;4040;42.848;23.034;2023-08-17T21:18:11;6.85;;;6.15;;
7989;SDS011;4040;42.848;23.034;2023-08-17T21:24:00;7.18;;;6.32;;
7989;SDS011;4040;42.848;23.034;2023-08-17T21:29:49;8.90;;;6.00;;
7989;SDS011;4040;42.848;23.034;2023-08-17T21:35:39;7.30;;;5.93;;
7989;SDS011;4040;42.848;23.034;2023-08-17T21:41:28;7.47;;;6.00;;
7989;SDS011;4040;42.848;23.034;2023-08-17T21:47:17;6.85;;;6.15;;
7989;SDS011;4040;42.848;23.034;2023-08-17T21:57:29;10.00;;;6.05;;
7989;SDS011;4040;42.848;23.034;2023-08-17T22:08:31;10.35;;;6.93;;
7989;SDS011;4040;42.848;23.034;2023-08-17T22:14:19;9.35;;;7.63;;
7989;SDS011;4040;42.848;23.034;2023-08-17T22:20:08;7.63;;;6.90;;
7989;SDS011;4040;42.848;23.034;2023-08-17T22:25:59;7.53;;;6.70;;
7989;SDS011;4040;42.848;23.034;2023-08-17T22:31:48;7.40;;;6.70;;
7989;SDS011;4040;42.848;23.034;2023-08-17T22:37:36;9.90;;;6.90;;
7989;SDS011;4040;42.848;23.034;2023-08-17T22:43:27;8.60;;;7.60;;
7989;SDS011;4040;42.848;23.034;2023-08-17T22:49:15;8.02;;;6.82;;
7989;SDS011;4040;42.848;23.034;2023-08-17T22:55:04;8.57;;;6.95;;
7989;SDS011;4040;42.848;23.034;2023-08-17T23:00:55;7.88;;;7.20;;
7989;SDS011;4040;42.848;23.034;2023-08-17T23:11:05;8.05;;;7.32;;
7989;SDS011;4040;42.848;23.034;2023-08-17T23:16:55;10.32;;;6.85;;
7989;SDS011;4040;42.848;23.034;2023-08-17T23:22:43;9.32;;;7.95;;
7989;SDS011;4040;42.848;23.034;2023-08-17T23:28:32;9.35;;;7.60;;
7989;SDS011;4040;42.848;23.034;2023-08-17T23:34:22;9.20;;;6.70;;
7989;SDS011;4040;42.848;23.034;2023-08-17T23:40:10;10.57;;;6.07;;
7989;SDS011;4040;42.848;23.034;2023-08-17T23:45:59;8.30;;;5.63;;
7989;SDS011;4040;42.848;23.034;2023-08-17T23:51:49;10.70;;;5.32;;
7989;SDS011;4040;42.848;23.034;2023-08-17T23:57:38;7.18;;;5.35;;
